createdAt,value
2018-05-01T00:00:46.959Z,11.10
2018-05-01T00:01:47.106Z,11.07
2018-05-01T00:02:47.255Z,11.17
2018-05-01T00:03:47.404Z,11.07
2018-05-01T00:04:47.554Z,10.99
2018-05-01T00:05:47.705Z,11.07
2018-05-01T00:06:47.858Z,11.09
2018-05-01T00:07:48.008Z,11.01
2018-05-01T00:08:48.158Z,11.10
2018-05-01T00:09:48.311Z,11.14
2018-05-01T00:10:48.451Z,11.07
2018-05-01T00:11:48.613Z,11.07
2018-05-01T00:12:48.762Z,11.03
2018-05-01T00:13:48.911Z,11.01
2018-05-01T00:14:49.060Z,11.02
2018-05-01T00:15:49.210Z,11.02
2018-05-01T00:16:49.360Z,11.03
2018-05-01T00:17:49.508Z,11.02
2018-05-01T00:18:49.658Z,10.96
2018-05-01T00:19:49.806Z,10.94
2018-05-01T00:20:49.955Z,10.88
2018-05-01T00:21:50.106Z,10.91
2018-05-01T00:22:50.253Z,10.86
2018-05-01T00:23:50.405Z,10.86
2018-05-01T00:24:50.557Z,10.92
2018-05-01T00:25:50.705Z,10.81
2018-05-01T00:26:50.856Z,10.80
2018-05-01T00:27:51.003Z,10.84
2018-05-01T00:28:51.152Z,10.81
2018-05-01T00:29:51.296Z,10.80
2018-05-01T00:30:51.443Z,10.81
2018-05-01T00:31:51.591Z,10.80
2018-05-01T00:32:51.740Z,10.80
2018-05-01T00:33:51.911Z,10.73
2018-05-01T00:34:52.060Z,10.68
2018-05-01T00:35:52.209Z,10.76
2018-05-01T00:36:52.355Z,10.84
2018-05-01T00:37:52.505Z,10.71
2018-05-01T00:38:52.655Z,10.66
2018-05-01T00:39:52.804Z,10.80
2018-05-01T00:40:52.950Z,10.68
2018-05-01T00:41:53.100Z,10.74
2018-05-01T00:42:53.248Z,10.66
2018-05-01T00:43:53.397Z,10.70
2018-05-01T00:44:53.549Z,10.77
2018-05-01T00:45:53.699Z,10.71
2018-05-01T00:46:53.850Z,10.68
2018-05-01T00:47:54.000Z,10.62
2018-05-01T00:48:54.149Z,10.68
2018-05-01T00:49:54.301Z,10.74
2018-05-01T00:50:54.443Z,10.76
2018-05-01T00:51:54.591Z,10.78
2018-05-01T00:52:54.740Z,10.71
2018-05-01T00:53:54.890Z,10.80
2018-05-01T00:54:55.041Z,10.74
2018-05-01T00:55:55.187Z,10.70
2018-05-01T00:56:55.339Z,10.71
2018-05-01T00:57:55.488Z,10.73
2018-05-01T00:58:55.638Z,10.73
2018-05-01T00:59:55.790Z,10.73
2018-05-01T01:00:55.937Z,10.68
2018-05-01T01:01:56.087Z,10.73
2018-05-01T01:02:56.237Z,10.70
2018-05-01T01:03:56.387Z,10.73
2018-05-01T01:04:56.534Z,10.65
2018-05-01T01:05:56.684Z,10.59
2018-05-01T01:06:56.837Z,10.60
2018-05-01T01:07:56.985Z,10.73
2018-05-01T01:08:57.133Z,10.63
2018-05-01T01:09:57.284Z,10.74
2018-05-01T01:10:57.436Z,10.73
2018-05-01T01:11:57.580Z,10.66
2018-05-01T01:12:57.730Z,10.63
2018-05-01T01:13:57.877Z,10.55
2018-05-01T01:14:58.028Z,10.53
2018-05-01T01:15:58.180Z,10.53
2018-05-01T01:16:58.326Z,10.46
2018-05-01T01:17:58.477Z,10.36
2018-05-01T01:18:58.625Z,10.37
2018-05-01T01:19:58.776Z,10.42
2018-05-01T01:20:58.927Z,10.34
2018-05-01T01:21:59.074Z,10.34
2018-05-01T01:22:59.224Z,10.33
2018-05-01T01:23:59.373Z,10.28
2018-05-01T01:24:59.522Z,10.25
2018-05-01T01:25:59.669Z,10.34
2018-05-01T01:26:59.821Z,10.19
2018-05-01T01:27:59.969Z,10.30
2018-05-01T01:29:00.118Z,10.10
2018-05-01T01:30:00.265Z,10.03
2018-05-01T01:31:00.417Z,10.03
2018-05-01T01:32:00.565Z,10.07
2018-05-01T01:33:00.712Z,10.04
2018-05-01T01:34:00.862Z,9.99
2018-05-01T01:35:01.012Z,9.99
2018-05-01T01:36:01.159Z,10.04
2018-05-01T01:37:01.307Z,9.86
2018-05-01T01:38:01.460Z,9.73
2018-05-01T01:39:01.607Z,9.75
2018-05-01T01:40:01.754Z,9.73
2018-05-01T01:41:01.905Z,9.64
2018-05-01T01:42:02.053Z,9.60
2018-05-01T01:43:02.200Z,9.60
2018-05-01T01:44:02.350Z,9.60
2018-05-01T01:45:02.497Z,9.50
2018-05-01T01:46:02.646Z,9.48
2018-05-01T01:47:02.798Z,9.38
2018-05-01T01:48:02.944Z,9.46
2018-05-01T01:49:03.099Z,9.40
2018-05-01T01:50:03.242Z,9.30
2018-05-01T01:51:03.392Z,9.23
2018-05-01T01:52:03.540Z,9.28
2018-05-01T01:53:03.688Z,9.21
2018-05-01T01:54:03.836Z,9.21
2018-05-01T01:55:03.984Z,9.13
2018-05-01T01:56:04.134Z,9.09
2018-05-01T01:57:04.283Z,9.09
2018-05-01T01:58:04.427Z,9.10
2018-05-01T01:59:04.575Z,9.05
2018-05-01T02:00:04.720Z,8.96
2018-05-01T02:01:04.869Z,8.91
2018-05-01T02:02:05.019Z,8.91
2018-05-01T02:03:05.164Z,8.75
2018-05-01T02:04:05.315Z,8.76
2018-05-01T02:05:05.550Z,8.75
2018-05-01T02:06:05.608Z,8.69
2018-05-01T02:07:05.759Z,8.62
2018-05-01T02:08:05.912Z,8.62
2018-05-01T02:09:06.054Z,8.62
2018-05-01T02:10:06.202Z,8.58
2018-05-01T02:11:06.351Z,8.58
2018-05-01T02:12:06.500Z,8.57
2018-05-01T02:13:06.646Z,8.68
2018-05-01T02:14:06.796Z,8.47
2018-05-01T02:15:06.945Z,8.45
2018-05-01T02:16:07.096Z,8.42
2018-05-01T02:17:07.244Z,8.33
2018-05-01T02:18:07.392Z,8.37
2018-05-01T02:19:07.538Z,8.36
2018-05-01T02:20:07.688Z,8.44
2018-05-01T02:21:07.837Z,8.39
2018-05-01T02:22:07.990Z,8.33
2018-05-01T02:23:08.133Z,8.40
2018-05-01T02:24:08.281Z,8.37
2018-05-01T02:25:08.429Z,8.37
2018-05-01T02:26:08.576Z,8.29
2018-05-01T02:27:08.726Z,8.36
2018-05-01T02:28:08.874Z,8.42
2018-05-01T02:29:09.023Z,8.32
2018-05-01T02:30:09.171Z,8.33
2018-05-01T02:31:09.334Z,8.32
2018-05-01T02:32:09.466Z,8.35
2018-05-01T02:33:09.616Z,8.32
2018-05-01T02:34:09.764Z,8.40
2018-05-01T02:35:09.910Z,8.35
2018-05-01T02:36:10.061Z,8.39
2018-05-01T02:37:10.209Z,8.33
2018-05-01T02:38:10.358Z,8.39
2018-05-01T02:39:10.504Z,8.33
2018-05-01T02:40:10.652Z,8.29
2018-05-01T02:41:10.860Z,8.35
2018-05-01T02:42:10.947Z,8.37
2018-05-01T02:43:11.093Z,8.47
2018-05-01T02:44:11.243Z,8.28
2018-05-01T02:45:11.392Z,8.29
2018-05-01T02:46:11.538Z,8.33
2018-05-01T02:47:11.689Z,8.37
2018-05-01T02:48:11.833Z,8.37
2018-05-01T02:49:11.983Z,8.33
2018-05-01T02:50:12.135Z,8.42
2018-05-01T02:51:12.275Z,8.36
2018-05-01T02:52:12.422Z,8.33
2018-05-01T02:53:12.572Z,8.22
2018-05-01T02:54:12.722Z,8.28
2018-05-01T02:55:12.867Z,8.21
2018-05-01T02:56:13.018Z,8.25
2018-05-01T02:57:13.164Z,8.28
2018-05-01T02:58:13.312Z,8.22
2018-05-01T02:59:13.462Z,8.21
2018-05-01T03:00:13.608Z,8.28
2018-05-01T03:01:13.756Z,8.32
2018-05-01T03:02:13.905Z,8.22
2018-05-01T03:03:14.052Z,8.25
2018-05-01T03:04:14.199Z,8.20
2018-05-01T03:05:14.348Z,8.26
2018-05-01T03:06:14.496Z,8.29
2018-05-01T03:07:14.643Z,8.21
2018-05-01T03:08:14.793Z,8.33
2018-05-01T03:09:14.949Z,8.39
2018-05-01T03:10:15.089Z,8.22
2018-05-01T03:11:15.236Z,8.28
2018-05-01T03:12:15.386Z,8.15
2018-05-01T03:13:15.532Z,8.21
2018-05-01T03:14:15.682Z,8.22
2018-05-01T03:15:15.831Z,8.18
2018-05-01T03:16:15.977Z,8.14
2018-05-01T03:17:16.126Z,8.08
2018-05-01T03:18:16.274Z,8.15
2018-05-01T03:19:16.422Z,8.18
2018-05-01T03:20:16.572Z,8.14
2018-05-01T03:21:16.718Z,8.14
2018-05-01T03:22:16.867Z,8.07
2018-05-01T03:23:17.021Z,8.12
2018-05-01T03:24:17.163Z,8.12
2018-05-01T03:25:17.373Z,8.18
2018-05-01T03:26:17.458Z,8.21
2018-05-01T03:27:17.605Z,8.04
2018-05-01T03:28:17.752Z,8.20
2018-05-01T03:29:17.900Z,8.20
2018-05-01T03:30:18.048Z,8.11
2018-05-01T03:31:18.194Z,8.17
2018-05-01T03:32:18.342Z,8.15
2018-05-01T03:33:18.491Z,8.17
2018-05-01T03:34:18.639Z,8.21
2018-05-01T03:35:18.785Z,8.22
2018-05-01T03:36:18.934Z,8.11
2018-05-01T03:37:19.081Z,8.12
2018-05-01T03:38:19.231Z,8.29
2018-05-01T03:39:19.435Z,8.18
2018-05-01T03:40:19.525Z,8.21
2018-05-01T03:41:19.672Z,8.10
2018-05-01T03:42:19.820Z,8.17
2018-05-01T03:43:19.970Z,8.17
2018-05-01T03:44:20.115Z,8.18
2018-05-01T03:45:20.264Z,8.12
2018-05-01T03:46:20.410Z,8.21
2018-05-01T03:47:20.558Z,8.14
2018-05-01T03:48:20.705Z,8.26
2018-05-01T03:49:20.854Z,8.17
2018-05-01T03:50:21.001Z,8.22
2018-05-01T03:51:21.148Z,8.21
2018-05-01T03:52:21.298Z,8.17
2018-05-01T03:53:21.444Z,8.15
2018-05-01T03:54:21.593Z,8.18
2018-05-01T03:55:21.741Z,8.15
2018-05-01T03:56:21.890Z,8.26
2018-05-01T03:57:22.040Z,8.20
2018-05-01T03:58:22.189Z,8.25
2018-05-01T03:59:22.335Z,8.22
2018-05-01T04:00:22.484Z,8.21
2018-05-01T04:01:22.632Z,8.20
2018-05-01T04:02:22.881Z,8.18
2018-05-01T04:03:22.927Z,8.11
2018-05-01T04:04:23.072Z,8.20
2018-05-01T04:05:23.221Z,8.26
2018-05-01T04:06:23.369Z,8.17
2018-05-01T04:07:23.516Z,8.15
2018-05-01T04:08:23.665Z,8.18
2018-05-01T04:09:23.843Z,8.18
2018-05-01T04:10:23.967Z,8.21
2018-05-01T04:11:24.112Z,8.17
2018-05-01T04:12:24.264Z,8.17
2018-05-01T04:13:24.409Z,8.17
2018-05-01T04:14:24.559Z,8.21
2018-05-01T04:15:24.710Z,8.12
2018-05-01T04:16:24.856Z,8.20
2018-05-01T04:17:25.011Z,8.25
2018-05-01T04:18:25.154Z,8.18
2018-05-01T04:19:25.300Z,8.20
2018-05-01T04:20:25.449Z,8.21
2018-05-01T04:21:25.599Z,8.21
2018-05-01T04:22:25.743Z,8.12
2018-05-01T04:23:25.891Z,8.12
2018-05-01T04:24:26.047Z,8.20
2018-05-01T04:25:26.232Z,8.22
2018-05-01T04:26:26.336Z,8.25
2018-05-01T04:27:26.484Z,8.25
2018-05-01T04:28:26.631Z,8.30
2018-05-01T04:29:26.780Z,8.29
2018-05-01T04:30:26.933Z,8.17
2018-05-01T04:31:27.076Z,8.25
2018-05-01T04:32:27.224Z,8.21
2018-05-01T04:33:27.374Z,8.26
2018-05-01T04:34:27.521Z,8.30
2018-05-01T04:35:27.668Z,8.17
2018-05-01T04:36:27.824Z,8.25
2018-05-01T04:37:27.967Z,8.26
2018-05-01T04:38:28.116Z,8.30
2018-05-01T04:39:28.263Z,8.29
2018-05-01T04:40:28.411Z,8.18
2018-05-01T04:41:28.557Z,8.28
2018-05-01T04:42:28.709Z,8.28
2018-05-01T04:43:28.853Z,8.26
2018-05-01T04:44:29.000Z,8.25
2018-05-01T04:45:29.149Z,8.29
2018-05-01T04:46:29.293Z,8.25
2018-05-01T04:47:29.459Z,8.29
2018-05-01T04:48:29.591Z,8.29
2018-05-01T04:49:29.739Z,8.30
2018-05-01T04:50:29.888Z,8.33
2018-05-01T04:51:30.037Z,8.29
2018-05-01T04:52:30.185Z,8.40
2018-05-01T04:53:30.335Z,8.29
2018-05-01T04:54:30.481Z,8.35
2018-05-01T04:55:30.631Z,8.32
2018-05-01T04:56:30.777Z,8.26
2018-05-01T04:57:30.926Z,8.29
2018-05-01T04:58:31.144Z,8.35
2018-05-01T04:59:31.222Z,8.40
2018-05-01T05:00:31.372Z,8.33
2018-05-01T05:01:31.517Z,8.35
2018-05-01T05:02:31.668Z,8.36
2018-05-01T05:03:31.814Z,8.51
2018-05-01T05:04:31.962Z,8.47
2018-05-01T05:05:32.110Z,8.57
2018-05-01T05:06:32.266Z,8.72
2018-05-01T05:07:32.406Z,8.65
2018-05-01T05:08:32.551Z,8.66
2018-05-01T05:09:32.719Z,8.76
2018-05-01T05:10:32.854Z,8.76
2018-05-01T05:11:32.998Z,8.76
2018-05-01T05:12:33.150Z,8.87
2018-05-01T05:13:33.300Z,8.81
2018-05-01T05:14:33.447Z,9.01
2018-05-01T05:15:33.594Z,9.06
2018-05-01T05:16:33.743Z,9.01
2018-05-01T05:17:33.893Z,9.05
2018-05-01T05:18:34.045Z,9.09
2018-05-01T05:19:34.191Z,8.81
2018-05-01T05:20:34.342Z,8.81
2018-05-01T05:21:34.489Z,8.81
2018-05-01T05:22:34.636Z,8.93
2018-05-01T05:23:34.787Z,8.88
2018-05-01T05:24:34.935Z,9.01
2018-05-01T05:25:35.087Z,9.05
2018-05-01T05:26:35.230Z,9.09
2018-05-01T05:27:35.381Z,9.09
2018-05-01T05:28:35.536Z,9.12
2018-05-01T05:29:35.675Z,9.02
2018-05-01T05:30:35.822Z,9.02
2018-05-01T05:31:35.972Z,8.94
2018-05-01T05:32:36.122Z,8.94
2018-05-01T05:33:36.273Z,8.75
2018-05-01T05:34:36.416Z,8.91
2018-05-01T05:35:36.566Z,8.78
2018-05-01T05:36:36.717Z,8.78
2018-05-01T05:37:36.867Z,8.66
2018-05-01T05:38:37.018Z,8.78
2018-05-01T05:39:37.164Z,8.69
2018-05-01T05:40:37.317Z,8.68
2018-05-01T05:41:37.465Z,8.66
2018-05-01T05:42:37.614Z,8.68
2018-05-01T05:43:37.763Z,8.69
2018-05-01T05:44:37.911Z,8.71
2018-05-01T05:45:38.059Z,8.76
2018-05-01T05:46:38.209Z,8.72
2018-05-01T05:47:38.358Z,8.78
2018-05-01T05:48:38.507Z,8.81
2018-05-01T05:49:38.659Z,8.91
2018-05-01T05:50:38.803Z,8.99
2018-05-01T05:51:38.952Z,8.90
2018-05-01T05:52:39.101Z,8.94
2018-05-01T05:53:39.257Z,8.86
2018-05-01T05:54:39.399Z,8.83
2018-05-01T05:55:39.548Z,8.83
2018-05-01T05:56:39.701Z,8.87
2018-05-01T05:57:39.847Z,8.84
2018-05-01T05:58:39.998Z,8.90
2018-05-01T05:59:40.146Z,8.86
2018-05-01T06:00:40.294Z,8.93
2018-05-01T06:01:40.445Z,9.04
2018-05-01T06:02:40.594Z,9.09
2018-05-01T06:03:40.744Z,8.94
2018-05-01T06:04:40.890Z,8.97
2018-05-01T06:05:41.042Z,8.91
2018-05-01T06:06:41.189Z,8.99
2018-05-01T06:07:41.381Z,9.02
2018-05-01T06:08:41.488Z,8.99
2018-05-01T06:09:41.634Z,8.93
2018-05-01T06:10:41.783Z,8.87
2018-05-01T06:11:41.932Z,8.94
2018-05-01T06:12:42.082Z,9.06
2018-05-01T06:13:42.307Z,9.25
2018-05-01T06:14:42.380Z,9.27
2018-05-01T06:15:42.533Z,9.13
2018-05-01T06:16:42.679Z,8.86
2018-05-01T06:17:42.831Z,8.97
2018-05-01T06:18:42.980Z,8.97
2018-05-01T06:19:43.128Z,8.84
2018-05-01T06:20:43.277Z,8.81
2018-05-01T06:21:43.424Z,8.88
2018-05-01T06:22:43.575Z,9.02
2018-05-01T06:23:43.724Z,8.97
2018-05-01T06:24:43.874Z,8.87
2018-05-01T06:25:44.025Z,8.78
2018-05-01T06:26:44.172Z,8.90
2018-05-01T06:27:44.322Z,8.83
2018-05-01T06:28:44.472Z,8.99
2018-05-01T06:29:44.620Z,8.99
2018-05-01T06:30:44.771Z,9.02
2018-05-01T06:31:44.921Z,9.09
2018-05-01T06:32:45.067Z,9.20
2018-05-01T06:33:45.216Z,9.27
2018-05-01T06:34:45.367Z,9.21
2018-05-01T06:35:45.516Z,9.28
2018-05-01T06:36:45.665Z,9.28
2018-05-01T06:37:45.816Z,9.23
2018-05-01T06:38:45.967Z,9.28
2018-05-01T06:39:46.117Z,9.25
2018-05-01T06:40:46.266Z,9.35
2018-05-01T06:41:46.414Z,9.39
2018-05-01T06:42:46.564Z,9.35
2018-05-01T06:43:46.715Z,9.35
2018-05-01T06:44:46.863Z,9.53
2018-05-01T06:45:47.013Z,9.35
2018-05-01T06:46:47.168Z,9.39
2018-05-01T06:47:47.311Z,9.42
2018-05-01T06:48:47.461Z,9.43
2018-05-01T06:49:47.611Z,9.38
2018-05-01T06:50:47.777Z,9.42
2018-05-01T06:51:47.901Z,9.53
2018-05-01T06:52:48.045Z,9.76
2018-05-01T06:53:48.192Z,9.82
2018-05-01T06:54:48.345Z,9.75
2018-05-01T06:55:48.493Z,9.63
2018-05-01T06:56:48.635Z,9.73
2018-05-01T06:57:48.866Z,9.66
2018-05-01T06:58:48.936Z,9.93
2018-05-01T06:59:49.085Z,9.91
2018-05-01T07:00:49.231Z,9.70
2018-05-01T07:01:49.383Z,9.63
2018-05-01T07:02:49.531Z,9.56
2018-05-01T07:03:49.676Z,9.39
2018-05-01T07:04:49.821Z,9.53
2018-05-01T07:05:49.968Z,9.49
2018-05-01T07:06:50.133Z,9.56
2018-05-01T07:07:50.260Z,9.73
2018-05-01T07:08:50.411Z,9.58
2018-05-01T07:09:50.562Z,9.60
2018-05-01T07:10:50.709Z,9.60
2018-05-01T07:11:50.866Z,9.73
2018-05-01T07:12:51.006Z,9.60
2018-05-01T07:13:51.151Z,9.68
2018-05-01T07:14:51.320Z,9.71
2018-05-01T07:15:51.490Z,9.45
2018-05-01T07:16:51.593Z,9.60
2018-05-01T07:17:51.740Z,9.68
2018-05-01T07:18:51.887Z,9.68
2018-05-01T07:19:52.037Z,9.57
2018-05-01T07:20:52.193Z,9.46
2018-05-01T07:21:52.340Z,9.23
2018-05-01T07:22:52.492Z,9.30
2018-05-01T07:23:52.640Z,9.43
2018-05-01T07:24:52.936Z,9.48
2018-05-01T07:25:52.933Z,9.34
2018-05-01T07:26:53.080Z,9.23
2018-05-01T07:27:53.289Z,9.24
2018-05-01T07:28:53.400Z,9.25
2018-05-01T07:29:53.773Z,9.20
2018-05-01T07:30:53.667Z,9.04
2018-05-01T07:31:53.819Z,8.99
2018-05-01T07:32:53.970Z,9.05
2018-05-01T07:33:54.113Z,9.04
2018-05-01T07:34:54.263Z,9.06
2018-05-01T07:35:54.413Z,9.12
2018-05-01T07:36:54.561Z,9.16
2018-05-01T07:37:54.705Z,9.13
2018-05-01T07:38:54.854Z,8.96
2018-05-01T07:39:55.005Z,9.13
2018-05-01T07:40:55.158Z,9.27
2018-05-01T07:41:55.307Z,9.24
2018-05-01T07:42:55.458Z,9.32
2018-05-01T07:43:55.606Z,9.42
2018-05-01T07:44:55.758Z,9.25
2018-05-01T07:45:55.910Z,9.38
2018-05-01T07:46:56.090Z,9.34
2018-05-01T07:47:56.247Z,9.43
2018-05-01T07:48:56.394Z,9.49
2018-05-01T07:49:56.544Z,9.40
2018-05-01T07:50:56.699Z,9.52
2018-05-01T07:51:56.845Z,9.57
2018-05-01T07:52:56.994Z,9.60
2018-05-01T07:53:57.147Z,9.67
2018-05-01T07:54:57.293Z,9.73
2018-05-01T07:55:57.447Z,9.67
2018-05-01T07:56:57.594Z,9.56
2018-05-01T07:57:57.746Z,9.49
2018-05-01T07:58:57.896Z,9.71
2018-05-01T07:59:58.061Z,9.53
2018-05-01T08:00:58.216Z,9.58
2018-05-01T08:01:58.357Z,9.63
2018-05-01T08:02:58.507Z,9.63
2018-05-01T08:03:58.658Z,9.86
2018-05-01T08:04:58.810Z,9.97
2018-05-01T08:05:58.958Z,10.04
2018-05-01T08:06:59.162Z,9.86
2018-05-01T08:07:59.275Z,9.73
2018-05-01T08:08:59.422Z,9.75
2018-05-01T08:09:59.570Z,9.89
2018-05-01T08:10:59.721Z,9.91
2018-05-01T08:11:59.897Z,9.96
2018-05-01T08:13:00.021Z,9.83
2018-05-01T08:14:00.166Z,9.68
2018-05-01T08:15:00.317Z,9.68
2018-05-01T08:16:00.467Z,9.63
2018-05-01T08:17:00.614Z,9.60
2018-05-01T08:18:00.762Z,9.49
2018-05-01T08:19:00.912Z,9.40
2018-05-01T08:20:01.075Z,9.43
2018-05-01T08:21:01.226Z,9.42
2018-05-01T08:22:01.367Z,9.35
2018-05-01T08:23:01.523Z,9.39
2018-05-01T08:24:01.660Z,9.38
2018-05-01T08:25:01.833Z,9.45
2018-05-01T08:26:02.014Z,9.56
2018-05-01T08:27:02.259Z,9.63
2018-05-01T08:28:02.280Z,9.76
2018-05-01T08:29:02.546Z,9.71
2018-05-01T08:30:02.584Z,9.71
2018-05-01T08:31:02.750Z,9.67
2018-05-01T08:32:02.911Z,9.68
2018-05-01T08:33:03.106Z,9.67
2018-05-01T08:34:03.333Z,9.61
2018-05-01T08:35:03.479Z,9.53
2018-05-01T08:36:03.559Z,9.48
2018-05-01T08:37:03.796Z,9.50
2018-05-01T08:38:03.923Z,9.40
2018-05-01T08:39:04.035Z,9.45
2018-05-01T08:40:04.163Z,9.38
2018-05-01T08:41:04.269Z,9.27
2018-05-01T08:42:04.305Z,9.28
2018-05-01T08:43:04.498Z,9.30
2018-05-01T08:44:04.709Z,9.31
2018-05-01T08:45:04.813Z,9.38
2018-05-01T08:46:04.937Z,9.45
2018-05-01T08:47:05.075Z,9.64
2018-05-01T08:48:05.200Z,9.68
2018-05-01T08:49:05.456Z,9.60
2018-05-01T08:50:05.487Z,9.73
2018-05-01T08:51:05.628Z,9.73
2018-05-01T08:52:05.723Z,9.73
2018-05-01T08:53:05.908Z,9.82
2018-05-01T08:54:06.042Z,9.78
2018-05-01T08:55:06.166Z,9.86
2018-05-01T08:56:06.273Z,9.86
2018-05-01T08:57:06.412Z,9.83
2018-05-01T08:58:06.547Z,9.82
2018-05-01T08:59:06.715Z,9.78
2018-05-01T09:00:06.817Z,9.56
2018-05-01T09:01:06.949Z,9.63
2018-05-01T09:02:07.137Z,9.78
2018-05-01T09:03:07.318Z,9.81
2018-05-01T09:04:07.486Z,9.89
2018-05-01T09:05:07.628Z,9.93
2018-05-01T09:06:07.787Z,10.01
2018-05-01T09:07:07.910Z,10.18
2018-05-01T09:08:08.027Z,10.24
2018-05-01T09:09:08.172Z,10.04
2018-05-01T09:10:08.291Z,10.07
2018-05-01T09:11:08.460Z,9.99
2018-05-01T09:12:08.644Z,9.91
2018-05-01T09:13:08.815Z,9.94
2018-05-01T09:14:09.010Z,9.88
2018-05-01T09:15:09.170Z,9.93
2018-05-01T09:16:09.365Z,10.03
2018-05-01T09:17:09.520Z,10.15
2018-05-01T09:18:09.773Z,10.07
2018-05-01T09:19:09.820Z,9.99
2018-05-01T09:20:10.015Z,9.86
2018-05-01T09:21:10.156Z,9.89
2018-05-01T09:22:10.315Z,9.96
2018-05-01T09:23:10.475Z,9.94
2018-05-01T09:24:10.581Z,10.01
2018-05-01T09:25:10.712Z,9.99
2018-05-01T09:26:10.849Z,10.12
2018-05-01T09:27:10.951Z,10.12
2018-05-01T09:28:11.097Z,10.32
2018-05-01T09:29:11.200Z,10.22
2018-05-01T09:30:11.321Z,10.55
2018-05-01T09:31:11.450Z,10.65
2018-05-01T09:32:11.591Z,10.66
2018-05-01T09:33:11.773Z,11.06
2018-05-01T09:34:11.934Z,11.47
2018-05-01T09:35:12.117Z,11.65
2018-05-01T09:36:12.283Z,11.41
2018-05-01T09:37:12.454Z,11.28
2018-05-01T09:38:12.622Z,11.03
2018-05-01T09:39:12.696Z,10.84
2018-05-01T09:40:12.949Z,10.60
2018-05-01T09:41:13.092Z,10.55
2018-05-01T09:42:13.133Z,10.53
2018-05-01T09:43:13.297Z,10.68
2018-05-01T09:44:13.463Z,10.55
2018-05-01T09:45:13.678Z,10.56
2018-05-01T09:46:13.761Z,10.71
2018-05-01T09:47:13.965Z,10.63
2018-05-01T09:48:14.252Z,10.52
2018-05-01T09:49:14.387Z,10.60
2018-05-01T09:50:14.512Z,10.52
2018-05-01T09:51:14.618Z,10.51
2018-05-01T09:52:14.711Z,10.77
2018-05-01T09:53:14.870Z,11.02
2018-05-01T09:54:14.954Z,11.35
2018-05-01T09:55:15.112Z,11.38
2018-05-01T09:56:15.236Z,11.54
2018-05-01T09:57:15.392Z,11.59
2018-05-01T09:58:15.515Z,11.74
2018-05-01T09:59:15.663Z,11.35
2018-05-01T10:00:15.826Z,11.28
2018-05-01T10:01:15.934Z,11.14
2018-05-01T10:02:16.083Z,11.24
2018-05-01T10:03:16.248Z,11.02
2018-05-01T10:04:16.396Z,10.99
2018-05-01T10:05:16.578Z,10.99
2018-05-01T10:06:16.774Z,11.36
2018-05-01T10:07:16.928Z,11.38
2018-05-01T10:08:17.070Z,11.43
2018-05-01T10:09:17.177Z,11.50
2018-05-01T10:10:17.326Z,11.54
2018-05-01T10:11:17.432Z,11.65
2018-05-01T10:12:17.656Z,11.83
2018-05-01T10:13:17.716Z,12.02
2018-05-01T10:14:17.822Z,12.33
2018-05-01T10:15:17.958Z,12.33
2018-05-01T10:16:18.113Z,12.33
2018-05-01T10:17:18.289Z,12.39
2018-05-01T10:18:18.470Z,12.44
2018-05-01T10:19:18.560Z,12.33
2018-05-01T10:20:18.795Z,12.54
2018-05-01T10:21:18.900Z,12.52
2018-05-01T10:22:19.056Z,12.75
2018-05-01T10:23:19.135Z,12.84
2018-05-01T10:24:19.369Z,13.06
2018-05-01T10:25:19.517Z,13.38
2018-05-01T10:26:19.628Z,13.49
2018-05-01T10:27:19.784Z,13.49
2018-05-01T10:28:19.892Z,13.30
2018-05-01T10:29:20.028Z,13.32
2018-05-01T10:30:20.189Z,13.25
2018-05-01T10:31:20.304Z,13.06
2018-05-01T10:32:21.344Z,12.99
2018-05-01T10:33:20.590Z,12.95
2018-05-01T10:34:20.730Z,13.09
2018-05-01T10:35:20.847Z,13.09
2018-05-01T10:36:20.991Z,13.44
2018-05-01T10:37:21.126Z,13.71
2018-05-01T10:38:21.262Z,13.67
2018-05-01T10:39:21.393Z,13.04
2018-05-01T10:40:21.546Z,13.12
2018-05-01T10:41:21.645Z,13.29
2018-05-01T10:42:21.758Z,13.38
2018-05-01T10:43:21.867Z,13.07
2018-05-01T10:44:22.007Z,13.04
2018-05-01T10:45:22.111Z,13.12
2018-05-01T10:46:22.167Z,13.06
2018-05-01T10:47:22.370Z,12.95
2018-05-01T10:48:22.546Z,13.25
2018-05-01T10:49:22.869Z,13.44
2018-05-01T10:50:22.947Z,13.59
2018-05-01T10:51:22.984Z,13.87
2018-05-01T10:52:23.153Z,13.99
2018-05-01T10:53:23.311Z,14.19
2018-05-01T10:54:23.462Z,14.19
2018-05-01T10:55:23.613Z,13.94
2018-05-01T10:56:23.771Z,14.19
2018-05-01T10:57:23.931Z,14.31
2018-05-01T10:58:24.092Z,14.25
2018-05-01T10:59:24.244Z,14.21
2018-05-01T11:00:24.388Z,14.39
2018-05-01T11:01:24.553Z,14.16
2018-05-01T11:02:24.703Z,14.24
2018-05-01T11:03:24.868Z,14.04
2018-05-01T11:04:25.041Z,14.24
2018-05-01T11:05:25.185Z,14.04
2018-05-01T11:06:25.333Z,14.32
2018-05-01T11:07:25.491Z,14.14
2018-05-01T11:08:25.726Z,13.27
2018-05-01T11:09:25.819Z,13.40
2018-05-01T11:10:25.971Z,13.38
2018-05-01T11:11:26.136Z,13.67
2018-05-01T11:12:26.291Z,13.96
2018-05-01T11:13:26.444Z,13.67
2018-05-01T11:14:26.598Z,13.47
2018-05-01T11:15:26.761Z,13.49
2018-05-01T11:16:26.920Z,13.25
2018-05-01T11:17:27.141Z,13.29
2018-05-01T11:18:27.234Z,13.24
2018-05-01T11:19:27.389Z,13.56
2018-05-01T11:20:27.544Z,13.91
2018-05-01T11:21:27.703Z,14.24
2018-05-01T11:22:27.855Z,14.17
2018-05-01T11:23:28.015Z,14.07
2018-05-01T11:24:28.171Z,14.17
2018-05-01T11:25:28.322Z,14.13
2018-05-01T11:26:28.494Z,14.13
2018-05-01T11:27:28.637Z,14.09
2018-05-01T11:28:28.872Z,14.14
2018-05-01T11:29:28.940Z,14.16
2018-05-01T11:30:29.096Z,14.25
2018-05-01T11:31:29.267Z,14.17
2018-05-01T11:32:29.390Z,14.19
2018-05-01T11:33:29.554Z,14.28
2018-05-01T11:34:29.695Z,14.31
2018-05-01T11:35:29.847Z,14.44
2018-05-01T11:36:30.062Z,14.19
2018-05-01T11:37:30.150Z,14.29
2018-05-01T11:38:30.301Z,14.19
2018-05-01T11:39:30.451Z,13.88
2018-05-01T11:40:30.601Z,13.71
2018-05-01T11:41:30.757Z,13.84
2018-05-01T11:42:30.912Z,13.79
2018-05-01T11:43:31.062Z,13.84
2018-05-01T11:44:31.223Z,14.25
2018-05-01T11:45:31.378Z,14.34
2018-05-01T11:46:31.635Z,14.14
2018-05-01T11:47:31.678Z,14.35
2018-05-01T11:48:31.833Z,14.57
2018-05-01T11:49:31.984Z,14.75
2018-05-01T11:50:32.134Z,14.60
2018-05-01T11:51:32.292Z,14.20
2018-05-01T11:52:32.440Z,14.42
2018-05-01T11:53:32.618Z,14.68
2018-05-01T11:54:32.769Z,14.81
2018-05-01T11:55:32.922Z,15.03
2018-05-01T11:56:33.080Z,14.62
2018-05-01T11:57:33.235Z,14.61
2018-05-01T11:58:33.387Z,14.42
2018-05-01T11:59:33.545Z,14.42
2018-05-01T12:00:33.697Z,14.60
2018-05-01T12:01:33.858Z,14.43
2018-05-01T12:02:34.097Z,14.52
2018-05-01T12:03:34.162Z,14.35
2018-05-01T12:04:34.349Z,14.57
2018-05-01T12:05:34.469Z,14.80
2018-05-01T12:06:34.627Z,14.87
2018-05-01T12:07:34.775Z,14.64
2018-05-01T12:08:34.925Z,14.67
2018-05-01T12:09:35.079Z,14.90
2018-05-01T12:10:35.317Z,14.91
2018-05-01T12:11:35.384Z,14.98
2018-05-01T12:12:35.540Z,15.12
2018-05-01T12:13:35.692Z,14.94
2018-05-01T12:14:35.848Z,14.53
2018-05-01T12:15:35.999Z,14.31
2018-05-01T12:16:36.155Z,14.43
2018-05-01T12:17:36.310Z,14.81
2018-05-01T12:18:36.481Z,14.98
2018-05-01T12:19:36.618Z,15.09
2018-05-01T12:20:36.772Z,14.95
2018-05-01T12:21:36.924Z,14.98
2018-05-01T12:22:37.081Z,15.36
2018-05-01T12:23:37.244Z,15.48
2018-05-01T12:24:37.393Z,15.81
2018-05-01T12:25:37.546Z,15.81
2018-05-01T12:26:37.706Z,15.68
2018-05-01T12:27:37.861Z,15.45
2018-05-01T12:28:38.011Z,15.31
2018-05-01T12:29:38.187Z,15.42
2018-05-01T12:30:38.323Z,15.59
2018-05-01T12:31:38.475Z,15.60
2018-05-01T12:32:38.637Z,15.52
2018-05-01T12:33:38.807Z,15.27
2018-05-01T12:34:38.970Z,15.24
2018-05-01T12:35:39.123Z,15.30
2018-05-01T12:36:39.366Z,15.02
2018-05-01T12:37:39.442Z,15.36
2018-05-01T12:38:39.607Z,15.19
2018-05-01T12:39:39.762Z,15.05
2018-05-01T12:40:39.989Z,14.93
2018-05-01T12:41:40.026Z,14.75
2018-05-01T12:42:40.181Z,14.47
2018-05-01T12:43:40.338Z,14.71
2018-05-01T12:44:40.498Z,14.37
2018-05-01T12:45:40.731Z,14.53
2018-05-01T12:46:40.806Z,14.65
2018-05-01T12:47:40.974Z,14.64
2018-05-01T12:48:41.127Z,14.87
2018-05-01T12:49:41.288Z,15.11
2018-05-01T12:50:41.441Z,14.91
2018-05-01T12:51:41.596Z,15.02
2018-05-01T12:52:41.753Z,15.49
2018-05-01T12:53:41.917Z,15.59
2018-05-01T12:54:42.068Z,15.63
2018-05-01T12:55:42.215Z,15.23
2018-05-01T12:56:42.368Z,15.24
2018-05-01T12:57:42.522Z,14.95
2018-05-01T12:58:42.676Z,15.13
2018-05-01T12:59:42.834Z,15.36
2018-05-01T13:00:42.988Z,15.01
2018-05-01T13:01:43.144Z,15.01
2018-05-01T13:02:43.300Z,14.91
2018-05-01T13:03:43.454Z,15.15
2018-05-01T13:04:43.606Z,15.26
2018-05-01T13:05:43.763Z,15.41
2018-05-01T13:06:43.929Z,15.64
2018-05-01T13:07:44.066Z,15.96
2018-05-01T13:08:44.250Z,15.85
2018-05-01T13:09:44.414Z,15.56